Terminal Aerodrome Forecast
Issued by NWS

Home | Current Version | Previous Version | Text Only | Print | Product List | Glossary On
Versions: 1 2 3 4 5 6 7 8 9 10 11 12 13 14 15
000
FTUS43 KGRB 252200 AAA
TAFMTW
TAF AMD
KMTW 252218Z 2522/2618 02013G21KT P6SM SCT110
     FM252300 03009KT P6SM SKC
     FM260300 35006KT P6SM SKC
     FM261600 02010G16KT P6SM FEW040=

USA.gov is the U.S. government's official web portal to all federal, state and local government web resources and services.